Pagina principale
METAR-TAF:

METAR-TAF

Aeroporti :

Aeroporto di Pyongyang-Sunan

Pyongyang, Corea del Nord

latitudine: 39-02N, longitudine: 125-47E, altezza: 36 m

METAR: mancante

Ora: 17:28 (08:58 UTC)

Previsione

Il bollettino è stato emesso 4 ore e 38 minuti fa, alle 04:20 UTC
Previsione valida dal 22 alle 06 UTC al 23 alle 06 UTC
Vento 10 kt da nord-ovest
Visibilità 10 km o più
nessuna nube inferiore a 1500 m e nessun cumulonembo
Evoluzione graduale
dal 22 alle 10 UTC al 22 alle 12 UTC
Vento 6 kt da est

TAF: ZKPY 220420Z 2206/2306 31005MPS CAVOK TX33/2206Z TN22/2221Z BECMG 2210/2212 09003MPS

Osservazioni e previsioni meteorologiche di più di 4000 aeroporti (messaggi METAR e TAF).

Le stazioni disponibili sono rappresentate dai dischi gialli e rossi sulla carta.

Puntare il mouse per vedere il nome della stazione.

Clicca sopra per visualizzare le osservazioni e previsioni meteorologiche.

Per cambiare la mappa : fare clic sui pulsanti verdi con una croce nera per ingrandire, il pulsante verde con un trattino per diminuire, o sulla freccia verde per le mappe adiacenti.


METAR-TAF: